Historique et archives des données météo des stations Météo Centre

Retrouvez les conditions météo en temps réel en cliquant ici...

Station météo de Néris-les-Bains (03)


Altitude de la station : 335 m







Relevés météorologiques pour le 31/10/2020 à Néris-les-Bains

Date
Heure
Températures Humidité Point de rosée Vitesse
du vent
Direction Rafales Windchill Pression Pluviométrie
Cumul
Date
Heure
Températures Humidité Point de rosée Vitesse
du vent
Direction Rafales Windchill Pression Pluviométrie
Cumul
31/10/2020 23:3016.2 °C73 %11.1 °C8 km/hESE13 km/h16.1 1022 hPa0.2 mm
31/10/2020 23:1516.1 °C73 %11.1 °C3 km/hS13 km/h16.1 1022 hPa0.2 mm
31/10/2020 23:0015.9 °C73 %11.1 °C10 km/hSSE13 km/h16.1 1022 hPa0.2 mm
31/10/2020 22:4515.7 °C73 %11.1 °C2 km/hSSE13 km/h15.6 1022 hPa0.2 mm
31/10/2020 22:3015.5 °C73 %10.6 °C6 km/hS13 km/h15.6 1022 hPa0.2 mm
31/10/2020 22:1515.2 °C73 %10.6 °C8 km/hS13 km/h15.0 1022 hPa0.2 mm
31/10/2020 22:0015.3 °C72 %10.6 °C2 km/hS13 km/h15.6 1022 hPa0.2 mm
31/10/2020 21:4515.4 °C71 %10.0 °C-SSE13 km/h15.6 1022 hPa0.2 mm
31/10/2020 21:3015.7 °C71 %10.6 °C-SSE13 km/h15.6 1022 hPa0.2 mm
31/10/2020 21:1515.8 °C70 %10.6 °C-S13 km/h15.6 1022 hPa0.2 mm
31/10/2020 21:0015.9 °C69 %10.0 °C-SSE13 km/h16.1 1022 hPa0.2 mm
31/10/2020 20:4516.2 °C68 %10.0 °C-S13 km/h16.1 1022 hPa0.2 mm
31/10/2020 20:3016.2 °C68 %10.0 °C5 km/hSSO13 km/h16.1 1022 hPa0.2 mm
31/10/2020 20:1516.3 °C67 %10.0 °C3 km/hS13 km/h16.1 1022 hPa0.2 mm
31/10/2020 20:0016.4 °C66 %10.0 °C3 km/hS13 km/h16.7 1022 hPa0.2 mm
31/10/2020 19:4516.3 °C67 %10.0 °C5 km/hS13 km/h16.1 1022 hPa0.2 mm
31/10/2020 19:3016.2 °C68 %10.0 °C6 km/hSSO13 km/h16.1 1022 hPa0.2 mm
31/10/2020 19:1516.3 °C68 %10.6 °C-SSO13 km/h16.1 1022 hPa0.2 mm
31/10/2020 19:0016.3 °C67 %10.0 °C-SSO13 km/h16.1 1022 hPa0.2 mm
31/10/2020 18:4416.6 °C66 %10.0 °C-SSO13 km/h16.7 1022 hPa0.2 mm
31/10/2020 18:2916.9 °C65 %10.0 °C-SSO13 km/h17.2 1021 hPa0.2 mm
31/10/2020 18:1417.1 °C64 %10.0 °C-SSO13 km/h17.2 1021 hPa0.2 mm
31/10/2020 17:5917.2 °C64 %10.6 °C2 km/hSSO13 km/h17.2 1021 hPa0.2 mm
31/10/2020 17:4417.5 °C63 %10.6 °C-SSO13 km/h17.8 1021 hPa0.2 mm
31/10/2020 17:2917.8 °C63 %10.6 °C-SSO13 km/h17.8 1021 hPa0.2 mm
31/10/2020 17:1418.1 °C62 %10.6 °C-SSO13 km/h18.3 1021 hPa0.2 mm
31/10/2020 16:5918.4 °C61 %10.6 °C-SSO13 km/h18.3 1021 hPa0.2 mm
31/10/2020 16:4418.8 °C59 %10.6 °C-SSO13 km/h18.9 1021 hPa0.2 mm
31/10/2020 16:2919.1 °C57 %10.6 °C-SSO13 km/h18.9 1021 hPa0.2 mm
31/10/2020 16:1419.9 °C53 %10.0 °C-SSO13 km/h20.0 1021 hPa0.2 mm
31/10/2020 15:5920.6 °C51 %10.0 °C-SO13 km/h20.6 1020 hPa0.2 mm
31/10/2020 15:4420.8 °C49 %9.4 °C3 km/hSSO13 km/h20.6 1021 hPa0.2 mm
31/10/2020 15:2921.3 °C48 %10.0 °C-SO13 km/h21.1 1021 hPa0.2 mm
31/10/2020 15:1421.7 °C45 %9.4 °C3 km/hOSO13 km/h21.7 1021 hPa0.2 mm
31/10/2020 14:5922.1 °C44 %9.4 °C-OSO13 km/h22.2 1021 hPa0.2 mm
31/10/2020 14:4422.4 °C43 %8.9 °C3 km/hOSO13 km/h22.2 1021 hPa0.2 mm
31/10/2020 14:2922.5 °C44 %9.4 °C-OSO13 km/h22.8 1021 hPa0.2 mm
31/10/2020 14:1422.4 °C45 %10.0 °C-OSO13 km/h22.2 1021 hPa0.2 mm
31/10/2020 13:5922.3 °C51 %11.7 °C-O13 km/h22.2 1021 hPa0.2 mm
31/10/2020 13:4422.1 °C47 %10.0 °C-O13 km/h22.2 1021 hPa0.2 mm
31/10/2020 13:2921.7 °C45 %9.4 °C-SO13 km/h21.7 1021 hPa0.2 mm
31/10/2020 13:1421.1 °C56 %11.7 °C-NO13 km/h21.1 1021 hPa0.2 mm
31/10/2020 12:5921.1 °C57 %12.2 °C-NO13 km/h21.1 1022 hPa0.2 mm
31/10/2020 12:4421.6 °C54 %11.7 °C-NO13 km/h21.7 1021 hPa0.2 mm
31/10/2020 12:2921.2 °C47 %9.4 °C-SO13 km/h21.1 1022 hPa0.2 mm
31/10/2020 12:1420.8 °C51 %10.0 °C-SO13 km/h20.6 1022 hPa0.2 mm
31/10/2020 12:0020.3 °C51 %10.0 °C-SO13 km/h20.6 1022 hPa0.2 mm
31/10/2020 11:4520.1 °C48 %8.9 °C-OSO13 km/h20.0 1022 hPa0.2 mm
31/10/2020 11:3019.9 °C50 %8.9 °C-S13 km/h20.0 1022 hPa0.2 mm
31/10/2020 11:1519.4 °C54 %10.0 °C-SE13 km/h19.4 1023 hPa0.2 mm
31/10/2020 11:0018.8 °C52 %8.9 °C-SSO13 km/h18.9 1023 hPa0.2 mm
31/10/2020 10:4518.3 °C54 %8.9 °C2 km/hSSE13 km/h18.3 1023 hPa0.2 mm
31/10/2020 10:3017.3 °C60 %9.4 °C-SSE13 km/h17.2 1023 hPa0.2 mm
31/10/2020 10:1416.8 °C63 %9.4 °C-SSE13 km/h16.7 1023 hPa0.2 mm
31/10/2020 09:5916.4 °C60 %8.3 °C-SE13 km/h16.7 1023 hPa0.2 mm
31/10/2020 09:4415.7 °C59 %7.8 °C-SE13 km/h15.6 1023 hPa0.2 mm
31/10/2020 09:2914.8 °C62 %7.2 °C5 km/hSSE13 km/h15.0 1023 hPa0.2 mm
31/10/2020 09:1413.8 °C66 %7.2 °C-SSE10 km/h13.9 1023 hPa0.2 mm
31/10/2020 08:5911.9 °C74 %7.2 °C-SSE10 km/h12.2 1023 hPa0.2 mm
31/10/2020 08:448.4 °C88 %6.7 °C-SSE10 km/h8.3 1023 hPa0.2 mm
31/10/2020 08:298.1 °C86 %6.1 °C-SSE10 km/h8.3 1023 hPa0.2 mm
31/10/2020 08:147.4 °C88 %5.6 °C-SSE10 km/h7.2 1023 hPa0.2 mm
31/10/2020 07:597.3 °C87 %5.6 °C-SSE10 km/h7.2 1023 hPa0.2 mm
31/10/2020 07:447.7 °C86 %5.6 °C-SSE10 km/h7.8 1023 hPa0.2 mm
31/10/2020 07:297.0 °C89 %5.6 °C-SSE10 km/h7.2 1023 hPa0.2 mm
31/10/2020 07:146.9 °C89 %5.6 °C-SSE10 km/h7.2 1023 hPa0.2 mm
31/10/2020 06:597.2 °C89 %5.6 °C-S10 km/h7.2 1023 hPa0.2 mm
31/10/2020 06:447.2 °C89 %5.6 °C-S10 km/h7.2 1023 hPa0.2 mm
31/10/2020 06:307.6 °C90 %6.1 °C-S10 km/h7.8 1023 hPa0.2 mm
31/10/2020 06:157.6 °C90 %6.1 °C-S10 km/h7.8 1023 hPa0.2 mm
31/10/2020 06:007.6 °C90 %6.1 °C-S10 km/h7.8 1023 hPa0.2 mm
31/10/2020 05:457.9 °C89 %6.1 °C-S10 km/h7.8 1023 hPa0.2 mm
31/10/2020 05:308.3 °C88 %6.7 °C-S10 km/h8.3 1023 hPa0.2 mm
31/10/2020 05:158.8 °C87 %6.7 °C-S10 km/h8.9 1023 hPa0.2 mm
31/10/2020 05:009.4 °C85 %7.2 °C-S10 km/h9.4 1023 hPa0.2 mm
31/10/2020 04:4510.6 °C82 %7.8 °C-S10 km/h10.6 1023 hPa0.2 mm
31/10/2020 04:3011.6 °C79 %7.8 °C-S10 km/h11.7 1023 hPa0.2 mm
31/10/2020 04:1510.9 °C83 %8.3 °C5 km/hS8 km/h11.1 1022 hPa0.2 mm
31/10/2020 04:0010.4 °C87 %8.3 °C-S6 km/h10.6 1023 hPa0.2 mm
31/10/2020 03:459.0 °C93 %7.8 °C-NNO5 km/h8.9 1023 hPa0.2 mm
31/10/2020 03:308.4 °C94 %7.8 °C-NNO5 km/h8.3 1023 hPa0.2 mm
31/10/2020 03:158.5 °C95 %7.8 °C-NNO5 km/h8.3 1023 hPa0.2 mm
31/10/2020 03:007.8 °C94 %7.2 °C-NNO5 km/h7.8 1023 hPa0.2 mm
31/10/2020 02:458.2 °C97 %7.8 °C-NNO5 km/h8.3 1023 hPa0.2 mm
31/10/2020 02:307.2 °C96 %6.7 °C-NNO5 km/h7.2 1023 hPa0.2 mm
31/10/2020 02:157.3 °C96 %6.7 °C-NNO5 km/h7.2 1024 hPa0.2 mm
31/10/2020 01:597.2 °C96 %6.7 °C-NNO5 km/h7.2 1024 hPa0.2 mm
31/10/2020 01:446.9 °C96 %6.7 °C-NNO5 km/h7.2 1024 hPa0.2 mm
31/10/2020 01:297.1 °C96 %6.7 °C-NNO5 km/h7.2 1024 hPa0.2 mm
31/10/2020 01:147.1 °C96 %6.7 °C-NNO5 km/h7.2 1024 hPa0.2 mm
31/10/2020 00:597.3 °C96 %6.7 °C-NNO2 km/h7.2 1024 hPa0.2 mm
31/10/2020 00:447.3 °C96 %6.7 °C-NNO2 km/h7.2 1024 hPa-
31/10/2020 00:297.4 °C95 %6.7 °C-NNO2 km/h7.2 1025 hPa-
31/10/2020 00:147.8 °C96 %7.2 °C-NNO2 km/h7.8 1025 hPa-


Le temps aujourd'hui à Néris-les-Bains - 03

Minima :

Température : 6.9 °C
Humidité : 43 %
Point de rosée : 5.6 °C
Vent moyen : 2 km/h
Windchill : 7.2
Pression atm. : 1020 hPa
Maxima :

Température : 22.5 °C
Humidité : 97 %
Point de rosée : 12.2 °C
Vent moyen : 10 km/h
Windchill : 22.8
Pression atm. : 1025 hPa
Rafales max : 13 km/h
Cumul de pluie sur 24H : 0.2 mm

Néris-les-Bains est une commune du département Allier (03).
La station météorologique du réseau de l'association Météo Centre la plus proche de Néris-les-Bains est celle de Villebret



Icône Facebook Association Météo Centre Icône Twitter Association Météo Centre Icône Chaîne Youtube Association Météo Centre Icône contact Association Météo Centre Icône Insta Association Météo Centre